createdAt,value
2017-07-20T00:00:26.335Z,99.99
2017-07-20T00:01:26.636Z,99.99
2017-07-20T00:02:26.314Z,99.99
2017-07-20T00:03:26.616Z,99.99
2017-07-20T00:04:26.599Z,99.99
2017-07-20T00:05:26.276Z,99.99
2017-07-20T00:06:26.565Z,99.99
2017-07-20T00:07:26.562Z,99.99
2017-07-20T00:08:26.546Z,99.99
2017-07-20T00:09:26.535Z,99.99
2017-07-20T00:10:26.515Z,99.99
2017-07-20T00:11:26.202Z,99.99
2017-07-20T00:12:26.496Z,99.99
2017-07-20T00:13:26.486Z,99.99
2017-07-20T00:14:26.468Z,99.99
2017-07-20T00:15:26.458Z,99.99
2017-07-20T00:16:26.158Z,99.99
2017-07-20T00:17:26.429Z,99.99
2017-07-20T00:18:26.422Z,99.99
2017-07-20T00:19:26.406Z,99.99
2017-07-20T00:20:26.416Z,99.99
2017-07-20T00:21:26.380Z,99.99
2017-07-20T00:22:26.364Z,99.99
2017-07-20T00:23:26.348Z,99.99
2017-07-20T00:24:26.358Z,99.99
2017-07-20T00:25:26.326Z,99.99
2017-07-20T00:26:26.328Z,99.99
2017-07-20T00:27:26.304Z,99.99
2017-07-20T00:28:25.985Z,99.99
2017-07-20T00:29:26.280Z,99.99
2017-07-20T00:30:25.975Z,99.99
2017-07-20T00:31:25.945Z,99.99
2017-07-20T00:32:26.258Z,99.99
2017-07-20T00:33:26.246Z,99.99
2017-07-20T00:34:25.921Z,99.99
2017-07-20T00:35:26.215Z,99.99
2017-07-20T00:36:25.884Z,99.99
2017-07-20T00:37:26.191Z,99.99
2017-07-20T00:38:26.167Z,99.99
2017-07-20T00:39:25.846Z,99.99
2017-07-20T00:40:26.193Z,99.99
2017-07-20T00:41:26.126Z,99.99
2017-07-20T00:42:26.162Z,99.99
2017-07-20T00:43:26.114Z,99.99
2017-07-20T00:44:26.185Z,99.99
2017-07-20T00:45:26.094Z,99.99
2017-07-20T00:46:26.094Z,99.99
2017-07-20T00:47:26.073Z,99.99
2017-07-20T00:48:25.748Z,99.99
2017-07-20T00:49:26.082Z,99.99
2017-07-20T00:50:26.025Z,99.99
2017-07-20T00:51:26.015Z,99.99
2017-07-20T00:52:25.735Z,99.99
2017-07-20T00:53:26.031Z,99.99
2017-07-20T00:54:25.655Z,99.99
2017-07-20T00:55:25.662Z,99.99
2017-07-20T00:56:25.935Z,99.99
2017-07-20T00:57:26.041Z,99.99
2017-07-20T00:58:25.911Z,99.99
2017-07-20T00:59:25.905Z,99.99
2017-07-20T01:00:25.580Z,99.99
2017-07-20T01:01:25.905Z,99.99
2017-07-20T01:02:25.554Z,99.99
2017-07-20T01:03:25.853Z,99.99
2017-07-20T01:04:25.833Z,99.99
2017-07-20T01:05:25.835Z,99.99
2017-07-20T01:06:25.811Z,99.99
2017-07-20T01:07:25.794Z,99.99
2017-07-20T01:08:25.473Z,99.99
2017-07-20T01:09:25.773Z,99.99
2017-07-20T01:10:25.452Z,99.99
2017-07-20T01:11:25.436Z,99.99
2017-07-20T01:12:25.430Z,99.99
2017-07-20T01:13:25.418Z,99.99
2017-07-20T01:14:25.711Z,99.99
2017-07-20T01:15:25.694Z,99.99
2017-07-20T01:16:25.692Z,99.99
2017-07-20T01:17:25.372Z,99.99
2017-07-20T01:18:25.668Z,99.99
2017-07-20T01:19:25.645Z,99.99
2017-07-20T01:20:25.645Z,99.99
2017-07-20T01:21:25.325Z,99.99
2017-07-20T01:22:25.605Z,99.99
2017-07-20T01:23:25.617Z,99.99
2017-07-20T01:24:25.583Z,99.99
2017-07-20T01:25:25.576Z,99.99
2017-07-20T01:26:25.555Z,99.99
2017-07-20T01:27:25.235Z,99.99
2017-07-20T01:28:25.532Z,99.99
2017-07-20T01:29:25.525Z,99.99
2017-07-20T01:30:25.493Z,99.99
2017-07-20T01:31:25.497Z,99.99
2017-07-20T01:32:25.185Z,99.99
2017-07-20T01:33:25.466Z,99.99
2017-07-20T01:34:25.444Z,99.99
2017-07-20T01:35:25.433Z,99.99
2017-07-20T01:36:25.444Z,99.99
2017-07-20T01:37:25.424Z,99.99
2017-07-20T01:38:25.408Z,99.99
2017-07-20T01:39:25.395Z,99.99
2017-07-20T01:40:25.374Z,99.99
2017-07-20T01:41:25.361Z,99.99
2017-07-20T01:42:25.352Z,99.99
2017-07-20T01:43:25.335Z,99.99
2017-07-20T01:44:25.337Z,99.99
2017-07-20T01:45:25.003Z,99.99
2017-07-20T01:46:25.326Z,99.99
2017-07-20T01:47:25.294Z,99.99
2017-07-20T01:48:25.278Z,99.99
2017-07-20T01:49:25.255Z,99.99
2017-07-20T01:50:25.264Z,99.99
2017-07-20T01:51:25.226Z,99.99
2017-07-20T01:52:25.225Z,99.99
2017-07-20T01:53:25.214Z,99.99
2017-07-20T01:54:25.203Z,99.99
2017-07-20T01:55:25.184Z,99.99
2017-07-20T01:56:25.163Z,99.99
2017-07-20T01:57:24.844Z,99.99
2017-07-20T01:58:25.132Z,99.99
2017-07-20T01:59:24.814Z,99.99
2017-07-20T02:00:25.113Z,99.99
2017-07-20T02:01:25.094Z,99.99
2017-07-20T02:02:25.085Z,99.99
2017-07-20T02:03:25.086Z,99.99
2017-07-20T02:04:25.056Z,99.99
2017-07-20T02:05:25.045Z,99.99
2017-07-20T02:06:25.024Z,99.99
2017-07-20T02:07:24.726Z,99.99
2017-07-20T02:08:25.003Z,99.99
2017-07-20T02:09:24.994Z,99.99
2017-07-20T02:10:24.971Z,99.99
2017-07-20T02:11:24.963Z,99.99
2017-07-20T02:12:24.954Z,99.99
2017-07-20T02:13:24.942Z,99.99
2017-07-20T02:14:24.612Z,99.99
2017-07-20T02:15:24.904Z,99.99
2017-07-20T02:16:24.895Z,99.99
2017-07-20T02:17:24.883Z,99.99
2017-07-20T02:18:24.873Z,99.99
2017-07-20T02:19:24.863Z,99.99
2017-07-20T02:20:24.855Z,99.99
2017-07-20T02:21:24.534Z,99.99
2017-07-20T02:22:24.534Z,99.99
2017-07-20T02:23:24.813Z,99.99
2017-07-20T02:24:24.482Z,99.99
2017-07-20T02:25:24.772Z,99.99
2017-07-20T02:26:24.767Z,99.99
2017-07-20T02:27:24.450Z,99.99
2017-07-20T02:28:24.435Z,99.99
2017-07-20T02:29:24.713Z,99.99
2017-07-20T02:30:24.414Z,99.99
2017-07-20T02:31:24.394Z,99.99
2017-07-20T02:32:24.381Z,99.99
2017-07-20T02:33:24.684Z,99.99
2017-07-20T02:34:24.364Z,99.99
2017-07-20T02:35:24.638Z,99.99
2017-07-20T02:36:24.331Z,99.99
2017-07-20T02:37:24.614Z,99.99
2017-07-20T02:38:24.297Z,99.99
2017-07-20T02:39:24.605Z,99.99
2017-07-20T02:40:24.579Z,99.99
2017-07-20T02:41:24.574Z,99.99
2017-07-20T02:42:24.304Z,99.99
2017-07-20T02:43:24.238Z,99.99
2017-07-20T02:44:24.525Z,99.99
2017-07-20T02:45:24.524Z,99.99
2017-07-20T02:46:24.514Z,99.99
2017-07-20T02:47:24.175Z,99.99
2017-07-20T02:48:24.471Z,99.99
2017-07-20T02:49:24.464Z,99.99
2017-07-20T02:50:24.436Z,99.99
2017-07-20T02:51:24.125Z,99.99
2017-07-20T02:52:24.424Z,99.99
2017-07-20T02:53:24.402Z,99.99
2017-07-20T02:54:24.135Z,99.99
2017-07-20T02:55:24.376Z,99.99
2017-07-20T02:56:24.055Z,99.99
2017-07-20T02:57:24.353Z,99.99
2017-07-20T02:58:24.050Z,99.99
2017-07-20T02:59:24.336Z,99.99
2017-07-20T03:00:24.326Z,99.99
2017-07-20T03:01:24.293Z,99.99
2017-07-20T03:02:24.286Z,99.99
2017-07-20T03:03:24.275Z,99.99
2017-07-20T03:04:24.037Z,99.99
2017-07-20T03:05:24.253Z,99.99
2017-07-20T03:06:24.255Z,99.99
2017-07-20T03:07:24.215Z,99.99
2017-07-20T03:08:24.204Z,99.99
2017-07-20T03:09:24.211Z,99.99
2017-07-20T03:10:23.991Z,99.99
2017-07-20T03:11:23.855Z,99.99
2017-07-20T03:12:23.858Z,99.99
2017-07-20T03:13:24.153Z,99.99
2017-07-20T03:14:24.135Z,99.99
2017-07-20T03:15:24.258Z,99.99
2017-07-20T03:16:24.265Z,99.99
2017-07-20T03:17:24.264Z,99.99
2017-07-20T03:18:24.340Z,99.99
2017-07-20T03:19:23.921Z,99.99
2017-07-20T03:20:24.194Z,99.99
2017-07-20T03:21:24.180Z,99.99
2017-07-20T03:22:23.825Z,99.99
2017-07-20T03:23:23.815Z,99.99
2017-07-20T03:24:24.118Z,99.99
2017-07-20T03:25:23.820Z,99.99
2017-07-20T03:26:24.124Z,99.99
2017-07-20T03:27:24.136Z,99.99
2017-07-20T03:28:24.069Z,99.99
2017-07-20T03:29:23.788Z,99.99
2017-07-20T03:30:24.036Z,99.99
2017-07-20T03:31:23.718Z,99.99
2017-07-20T03:32:23.967Z,99.99
2017-07-20T03:33:24.037Z,99.99
2017-07-20T03:34:23.935Z,99.99
2017-07-20T03:35:23.977Z,99.99
2017-07-20T03:36:23.654Z,99.99
2017-07-20T03:37:23.632Z,99.99
2017-07-20T03:38:23.984Z,99.99
2017-07-20T03:39:24.018Z,99.99
2017-07-20T03:40:23.908Z,99.99
2017-07-20T03:41:23.464Z,99.99
2017-07-20T03:42:23.744Z,99.99
2017-07-20T03:43:23.745Z,99.99
2017-07-20T03:44:23.713Z,99.99
2017-07-20T03:45:23.714Z,99.99
2017-07-20T03:46:23.402Z,99.99
2017-07-20T03:47:23.684Z,99.99
2017-07-20T03:48:23.365Z,99.99
2017-07-20T03:49:23.706Z,99.99
2017-07-20T03:50:23.636Z,99.99
2017-07-20T03:51:23.624Z,99.99
2017-07-20T03:52:23.616Z,99.99
2017-07-20T03:53:23.595Z,99.99
2017-07-20T03:54:23.585Z,99.99
2017-07-20T03:55:23.573Z,99.99
2017-07-20T03:56:23.554Z,99.99
2017-07-20T03:57:23.545Z,99.99
2017-07-20T03:58:23.232Z,99.99
2017-07-20T03:59:23.519Z,99.99
2017-07-20T04:00:23.516Z,99.99
2017-07-20T04:01:23.496Z,99.99
2017-07-20T04:02:23.475Z,99.99
2017-07-20T04:03:23.145Z,99.99
2017-07-20T04:04:23.442Z,99.99
2017-07-20T04:05:23.113Z,99.99
2017-07-20T04:06:23.424Z,99.99
2017-07-20T04:07:23.108Z,99.99
2017-07-20T04:08:23.393Z,99.99
2017-07-20T04:09:23.373Z,99.99
2017-07-20T04:10:23.366Z,99.99
2017-07-20T04:11:23.355Z,99.99
2017-07-20T04:12:23.345Z,99.99
2017-07-20T04:13:23.013Z,99.99
2017-07-20T04:14:23.304Z,99.99
2017-07-20T04:15:22.984Z,99.99
2017-07-20T04:16:22.974Z,99.99
2017-07-20T04:17:23.273Z,99.99
2017-07-20T04:18:22.935Z,99.99
2017-07-20T04:19:23.235Z,99.99
2017-07-20T04:20:23.233Z,99.99
2017-07-20T04:21:23.220Z,99.99
2017-07-20T04:22:22.894Z,99.99
2017-07-20T04:23:23.174Z,99.99
2017-07-20T04:24:22.857Z,99.99
2017-07-20T04:25:22.849Z,99.99
2017-07-20T04:26:23.133Z,99.99
2017-07-20T04:27:23.121Z,99.99
2017-07-20T04:28:22.815Z,99.99
2017-07-20T04:29:22.785Z,99.99
2017-07-20T04:30:23.082Z,99.99
2017-07-20T04:31:23.073Z,99.99
2017-07-20T04:32:23.057Z,99.99
2017-07-20T04:33:23.034Z,99.99
2017-07-20T04:34:23.033Z,99.99
2017-07-20T04:35:23.013Z,99.99
2017-07-20T04:36:22.993Z,99.99
2017-07-20T04:37:22.994Z,99.99
2017-07-20T04:38:22.971Z,99.99
2017-07-20T04:39:22.965Z,99.99
2017-07-20T04:40:22.633Z,99.99
2017-07-20T04:41:22.623Z,99.99
2017-07-20T04:42:22.604Z,99.99
2017-07-20T04:43:22.593Z,99.99
2017-07-20T04:44:22.882Z,99.99
2017-07-20T04:45:22.877Z,99.99
2017-07-20T04:46:22.866Z,99.99
2017-07-20T04:47:22.584Z,99.99
2017-07-20T04:48:22.533Z,99.99
2017-07-20T04:49:22.883Z,99.99
2017-07-20T04:50:22.803Z,99.99
2017-07-20T04:51:22.844Z,99.99
2017-07-20T04:52:22.478Z,99.99
2017-07-20T04:53:22.465Z,99.99
2017-07-20T04:54:22.753Z,99.99
2017-07-20T04:55:22.813Z,99.99
2017-07-20T04:56:22.729Z,99.99
2017-07-20T04:57:22.715Z,99.99
2017-07-20T04:58:22.713Z,99.99
2017-07-20T04:59:22.694Z,99.99
2017-07-20T05:00:22.376Z,99.99
2017-07-20T05:01:22.706Z,99.99
2017-07-20T05:02:22.336Z,99.99
2017-07-20T05:03:22.328Z,99.99
2017-07-20T05:04:22.614Z,99.99
2017-07-20T05:05:22.624Z,99.99
2017-07-20T05:06:22.285Z,99.99
2017-07-20T05:07:22.586Z,99.99
2017-07-20T05:08:22.577Z,99.99
2017-07-20T05:09:22.546Z,99.99
2017-07-20T05:10:22.545Z,99.99
2017-07-20T05:11:22.214Z,99.99
2017-07-20T05:12:22.503Z,99.99
2017-07-20T05:13:22.493Z,99.99
2017-07-20T05:14:22.183Z,99.99
2017-07-20T05:15:22.464Z,99.99
2017-07-20T05:16:22.151Z,99.99
2017-07-20T05:17:22.141Z,99.99
2017-07-20T05:18:22.135Z,99.99
2017-07-20T05:19:22.106Z,99.99
2017-07-20T05:20:22.093Z,99.99
2017-07-20T05:21:22.385Z,99.99
2017-07-20T05:22:22.063Z,99.99
2017-07-20T05:23:22.055Z,99.99
2017-07-20T05:24:22.350Z,99.99
2017-07-20T05:25:22.334Z,99.99
2017-07-20T05:26:22.313Z,99.99
2017-07-20T05:27:22.304Z,99.99
2017-07-20T05:28:22.284Z,99.99
2017-07-20T05:29:22.273Z,99.99
2017-07-20T05:30:22.044Z,99.99
2017-07-20T05:31:22.255Z,99.99
2017-07-20T05:32:22.246Z,99.99
2017-07-20T05:33:22.223Z,99.99
2017-07-20T05:34:22.210Z,99.99
2017-07-20T05:35:22.184Z,99.99
2017-07-20T05:36:21.931Z,99.99
2017-07-20T05:37:22.164Z,99.99
2017-07-20T05:38:22.153Z,99.99
2017-07-20T05:39:22.146Z,99.99
2017-07-20T05:40:21.914Z,99.99
2017-07-20T05:41:22.117Z,99.99
2017-07-20T05:42:22.104Z,99.99
2017-07-20T05:43:22.086Z,99.99
2017-07-20T05:44:22.074Z,99.99
2017-07-20T05:45:22.054Z,99.99
2017-07-20T05:46:21.794Z,99.99
2017-07-20T05:47:22.025Z,99.99
2017-07-20T05:48:22.023Z,99.99
2017-07-20T05:49:22.004Z,99.99
2017-07-20T05:50:22.003Z,99.99
2017-07-20T05:51:21.682Z,99.99
2017-07-20T05:52:21.994Z,99.99
2017-07-20T05:53:21.944Z,99.99
2017-07-20T05:54:21.978Z,99.99
2017-07-20T05:55:21.926Z,99.99
2017-07-20T05:56:21.926Z,99.99
2017-07-20T05:57:21.904Z,99.99
2017-07-20T05:58:21.586Z,99.99
2017-07-20T05:59:21.868Z,99.99
2017-07-20T06:00:21.855Z,99.99
2017-07-20T06:01:21.936Z,99.99
2017-07-20T06:02:21.836Z,99.99
2017-07-20T06:03:21.897Z,99.99
2017-07-20T06:04:21.794Z,99.99
2017-07-20T06:05:21.797Z,99.99
2017-07-20T06:06:21.783Z,99.99
2017-07-20T06:07:21.452Z,99.99
2017-07-20T06:08:21.433Z,99.99
2017-07-20T06:09:21.873Z,99.99
2017-07-20T06:10:21.723Z,99.99
2017-07-20T06:11:21.694Z,99.99
2017-07-20T06:12:21.384Z,99.99
2017-07-20T06:13:21.675Z,99.99
2017-07-20T06:14:21.659Z,99.99
2017-07-20T06:15:21.695Z,99.99
2017-07-20T06:16:21.646Z,99.99
2017-07-20T06:17:21.637Z,99.99
2017-07-20T06:18:21.303Z,99.99
2017-07-20T06:19:21.605Z,99.99
2017-07-20T06:20:21.589Z,99.99
2017-07-20T06:21:21.573Z,99.99
2017-07-20T06:22:21.545Z,99.99
2017-07-20T06:23:21.532Z,99.99
2017-07-20T06:24:21.535Z,99.99
2017-07-20T06:25:21.516Z,99.99
2017-07-20T06:26:21.184Z,99.99
2017-07-20T06:27:21.480Z,99.99
2017-07-20T06:28:21.167Z,99.99
2017-07-20T06:29:21.153Z,99.99
2017-07-20T06:30:21.448Z,99.99
2017-07-20T06:31:21.431Z,99.99
2017-07-20T06:32:21.116Z,99.99
2017-07-20T06:33:21.405Z,99.99
2017-07-20T06:34:21.404Z,99.99
2017-07-20T06:35:21.375Z,99.99
2017-07-20T06:36:21.067Z,99.99
2017-07-20T06:37:21.342Z,99.99
2017-07-20T06:38:21.353Z,99.99
2017-07-20T06:39:21.317Z,99.99
2017-07-20T06:40:21.306Z,99.99
2017-07-20T06:41:20.996Z,99.99
2017-07-20T06:42:21.284Z,99.99
2017-07-20T06:43:20.961Z,99.99
2017-07-20T06:44:21.241Z,99.99
2017-07-20T06:45:21.242Z,99.99
2017-07-20T06:46:21.225Z,99.99
2017-07-20T06:47:21.212Z,99.99
2017-07-20T06:48:21.206Z,99.99
2017-07-20T06:49:20.886Z,99.99
2017-07-20T06:50:21.183Z,99.99
2017-07-20T06:51:21.166Z,99.99
2017-07-20T06:52:21.148Z,99.99
2017-07-20T06:53:21.136Z,99.99
2017-07-20T06:54:21.112Z,99.99
2017-07-20T06:55:21.104Z,99.99
2017-07-20T06:56:20.804Z,99.99
2017-07-20T06:57:21.076Z,99.99
2017-07-20T06:58:20.760Z,99.99
2017-07-20T06:59:21.053Z,99.99
2017-07-20T07:00:21.045Z,99.99
2017-07-20T07:01:20.715Z,99.99
2017-07-20T07:02:21.011Z,99.99
2017-07-20T07:03:20.995Z,99.99
2017-07-20T07:04:20.983Z,99.99
2017-07-20T07:05:20.974Z,99.99
2017-07-20T07:06:20.961Z,99.99
2017-07-20T07:07:20.647Z,99.99
2017-07-20T07:08:20.633Z,99.99
2017-07-20T07:09:20.924Z,99.99
2017-07-20T07:10:20.914Z,99.99
2017-07-20T07:11:20.595Z,99.99
2017-07-20T07:12:20.888Z,99.99
2017-07-20T07:13:20.630Z,99.99
2017-07-20T07:14:20.865Z,99.99
2017-07-20T07:15:20.854Z,99.99
2017-07-20T07:16:20.834Z,99.99
2017-07-20T07:17:20.825Z,99.99
2017-07-20T07:18:20.527Z,99.99
2017-07-20T07:19:20.812Z,99.99
2017-07-20T07:20:20.810Z,99.99
2017-07-20T07:21:20.774Z,99.99
2017-07-20T07:22:20.773Z,99.99
2017-07-20T07:23:20.457Z,99.99
2017-07-20T07:24:20.739Z,99.99
2017-07-20T07:25:20.823Z,99.99
2017-07-20T07:26:20.714Z,99.99
2017-07-20T07:27:20.776Z,99.99
2017-07-20T07:28:20.705Z,99.99
2017-07-20T07:29:20.779Z,99.99
2017-07-20T07:30:20.671Z,99.99
2017-07-20T07:31:20.445Z,99.99
2017-07-20T07:32:20.646Z,99.99
2017-07-20T07:33:20.676Z,99.99
2017-07-20T07:34:20.346Z,99.99
2017-07-20T07:35:20.627Z,99.99
2017-07-20T07:36:20.635Z,99.99
2017-07-20T07:37:20.632Z,99.99
2017-07-20T07:38:20.614Z,99.99
2017-07-20T07:39:20.632Z,99.99
2017-07-20T07:40:20.554Z,99.99
2017-07-20T07:41:20.534Z,99.99
2017-07-20T07:42:20.526Z,99.99
2017-07-20T07:43:20.505Z,99.99
2017-07-20T07:44:20.194Z,99.99
2017-07-20T07:45:20.180Z,99.99
2017-07-20T07:46:20.467Z,99.99
2017-07-20T07:47:20.465Z,99.99
2017-07-20T07:48:20.471Z,99.99
2017-07-20T07:49:20.460Z,99.99
2017-07-20T07:50:20.126Z,99.99
2017-07-20T07:51:20.115Z,99.99
2017-07-20T07:52:20.396Z,99.99
2017-07-20T07:53:20.385Z,99.99
2017-07-20T07:54:20.407Z,99.99
2017-07-20T07:55:20.385Z,99.99
2017-07-20T07:56:20.347Z,99.99
2017-07-20T07:57:20.334Z,99.99
2017-07-20T07:58:20.314Z,99.99
2017-07-20T07:59:20.005Z,99.99
2017-07-20T08:00:20.294Z,99.99
2017-07-20T08:01:20.285Z,99.99
2017-07-20T08:02:19.976Z,99.99
2017-07-20T08:03:20.283Z,99.99
2017-07-20T08:04:20.244Z,99.99
2017-07-20T08:05:19.930Z,99.99
2017-07-20T08:06:20.226Z,99.99
2017-07-20T08:07:19.910Z,99.99
2017-07-20T08:08:20.195Z,99.99
2017-07-20T08:09:20.187Z,99.99
2017-07-20T08:10:20.176Z,99.99
2017-07-20T08:11:20.166Z,99.99
2017-07-20T08:12:20.149Z,99.99
2017-07-20T08:13:20.144Z,99.99
2017-07-20T08:14:20.120Z,99.99
2017-07-20T08:15:20.116Z,99.99
2017-07-20T08:16:20.096Z,99.99
2017-07-20T08:17:20.095Z,99.99
2017-07-20T08:18:20.074Z,99.99
2017-07-20T08:19:20.065Z,99.99
2017-07-20T08:20:20.048Z,99.99
2017-07-20T08:21:20.051Z,99.99
2017-07-20T08:22:20.028Z,99.99
2017-07-20T08:23:20.002Z,99.99
2017-07-20T08:24:20.010Z,99.99
2017-07-20T08:25:19.983Z,99.99
2017-07-20T08:26:19.972Z,99.99
2017-07-20T08:27:19.965Z,99.99
2017-07-20T08:28:19.943Z,99.99
2017-07-20T08:29:19.944Z,99.99
2017-07-20T08:30:19.603Z,99.99
2017-07-20T08:31:19.617Z,99.99
2017-07-20T08:32:19.901Z,99.99
2017-07-20T08:33:19.903Z,99.99
2017-07-20T08:34:19.885Z,99.99
2017-07-20T08:35:19.932Z,99.99
2017-07-20T08:36:19.845Z,99.99
2017-07-20T08:37:19.535Z,99.99
2017-07-20T08:38:19.515Z,99.99
2017-07-20T08:39:19.806Z,99.99
2017-07-20T08:40:19.795Z,99.99
2017-07-20T08:41:19.776Z,99.99
2017-07-20T08:42:19.478Z,99.99
2017-07-20T08:43:19.771Z,99.99
2017-07-20T08:44:19.744Z,99.99
2017-07-20T08:45:19.734Z,99.99
2017-07-20T08:46:19.725Z,99.99
2017-07-20T08:47:19.714Z,99.99
2017-07-20T08:48:19.686Z,99.99
2017-07-20T08:49:19.377Z,99.99
2017-07-20T08:50:19.377Z,99.99
2017-07-20T08:51:19.663Z,99.99
2017-07-20T08:52:19.344Z,99.99
2017-07-20T08:53:19.633Z,99.99
2017-07-20T08:54:19.625Z,99.99
2017-07-20T08:55:19.305Z,99.99
2017-07-20T08:56:19.606Z,99.99
2017-07-20T08:57:19.589Z,99.99
2017-07-20T08:58:19.269Z,99.99
2017-07-20T08:59:19.568Z,99.99
2017-07-20T09:00:19.249Z,99.99
2017-07-20T09:01:19.242Z,99.99
2017-07-20T09:02:19.231Z,99.99
2017-07-20T09:03:19.514Z,99.99
2017-07-20T09:04:19.499Z,99.99
2017-07-20T09:05:19.497Z,99.99
2017-07-20T09:06:19.471Z,99.99
2017-07-20T09:07:19.473Z,99.99
2017-07-20T09:08:19.457Z,99.99
2017-07-20T09:09:19.444Z,99.99
2017-07-20T09:10:19.428Z,99.99
2017-07-20T09:11:19.427Z,99.99
2017-07-20T09:12:19.404Z,99.99
2017-07-20T09:13:19.411Z,99.99
2017-07-20T09:14:19.398Z,99.99
2017-07-20T09:15:19.367Z,99.99
2017-07-20T09:16:19.358Z,99.99
2017-07-20T09:17:19.354Z,99.99
2017-07-20T09:18:19.345Z,99.99
2017-07-20T09:19:19.039Z,99.99
2017-07-20T09:20:19.315Z,99.99
2017-07-20T09:21:19.301Z,99.99
2017-07-20T09:22:19.286Z,99.99
2017-07-20T09:23:19.277Z,99.99
2017-07-20T09:24:19.270Z,99.99
2017-07-20T09:25:19.262Z,99.99
2017-07-20T09:26:19.245Z,99.99
2017-07-20T09:27:19.228Z,99.99
2017-07-20T09:28:19.220Z,99.99
2017-07-20T09:29:19.202Z,99.99
2017-07-20T09:30:19.199Z,99.99
2017-07-20T09:31:19.178Z,99.99
2017-07-20T09:32:19.180Z,99.99
2017-07-20T09:33:19.172Z,99.99
2017-07-20T09:34:19.151Z,99.99
2017-07-20T09:35:19.136Z,99.99
2017-07-20T09:36:18.817Z,99.99
2017-07-20T09:37:19.110Z,99.99
2017-07-20T09:38:19.091Z,99.99
2017-07-20T09:39:19.090Z,99.99
2017-07-20T09:40:18.774Z,99.99
2017-07-20T09:41:19.069Z,99.99
2017-07-20T09:42:19.055Z,99.99
2017-07-20T09:43:19.050Z,99.99
2017-07-20T09:44:19.046Z,99.99
2017-07-20T09:45:19.066Z,99.99
2017-07-20T09:46:18.696Z,99.99
2017-07-20T09:47:19.027Z,99.99
2017-07-20T09:48:18.983Z,99.99
2017-07-20T09:49:19.073Z,99.99
2017-07-20T09:50:18.960Z,99.99
2017-07-20T09:51:18.645Z,99.99
2017-07-20T09:52:18.942Z,99.99
2017-07-20T09:53:18.727Z,99.99
2017-07-20T09:54:18.606Z,99.99
2017-07-20T09:55:18.904Z,99.99
2017-07-20T09:56:18.607Z,99.99
2017-07-20T09:57:18.904Z,99.99
2017-07-20T09:58:18.911Z,99.99
2017-07-20T09:59:18.859Z,99.99
2017-07-20T10:00:18.853Z,99.99
2017-07-20T10:01:18.840Z,99.99
2017-07-20T10:02:18.844Z,99.99
2017-07-20T10:03:18.827Z,99.99
2017-07-20T10:04:18.827Z,99.99
2017-07-20T10:05:18.808Z,99.99
2017-07-20T10:06:18.805Z,99.99
2017-07-20T10:07:18.788Z,99.99
2017-07-20T10:08:18.773Z,99.99
2017-07-20T10:09:18.773Z,99.99
2017-07-20T10:10:18.765Z,99.99
2017-07-20T10:11:18.763Z,99.99
2017-07-20T10:12:18.766Z,99.99
2017-07-20T10:13:18.444Z,99.99
2017-07-20T10:14:18.737Z,99.99
2017-07-20T10:15:18.726Z,99.99
2017-07-20T10:16:18.714Z,99.99
2017-07-20T10:17:18.716Z,99.99
2017-07-20T10:18:18.722Z,99.99
2017-07-20T10:19:18.382Z,99.99
2017-07-20T10:20:18.681Z,99.99
2017-07-20T10:21:18.685Z,99.99
2017-07-20T10:22:18.665Z,99.99
2017-07-20T10:23:18.657Z,99.99
2017-07-20T10:24:18.646Z,99.99
2017-07-20T10:25:18.636Z,99.99
2017-07-20T10:26:18.637Z,99.99
2017-07-20T10:27:18.617Z,99.99
2017-07-20T10:28:18.317Z,99.99
2017-07-20T10:29:18.628Z,99.99
2017-07-20T10:30:18.596Z,99.99
2017-07-20T10:31:18.590Z,99.99
2017-07-20T10:32:18.575Z,99.99
2017-07-20T10:33:18.644Z,99.99
2017-07-20T10:34:18.635Z,99.99
2017-07-20T10:35:18.536Z,99.99
2017-07-20T10:36:18.545Z,99.99
2017-07-20T10:37:18.214Z,99.99
2017-07-20T10:38:18.226Z,99.99
2017-07-20T10:39:18.574Z,99.99
2017-07-20T10:40:18.554Z,99.99
2017-07-20T10:41:18.497Z,99.99
2017-07-20T10:42:18.484Z,99.99
2017-07-20T10:43:18.486Z,99.99
2017-07-20T10:44:18.464Z,99.99
2017-07-20T10:45:18.469Z,99.99
2017-07-20T10:46:18.447Z,99.99
2017-07-20T10:47:18.444Z,99.99
2017-07-20T10:48:18.120Z,99.99
2017-07-20T10:49:18.492Z,99.99
2017-07-20T10:50:18.425Z,99.99
2017-07-20T10:51:18.405Z,99.99
2017-07-20T10:52:18.393Z,99.99
2017-07-20T10:53:18.384Z,99.99
2017-07-20T10:54:18.381Z,99.99
2017-07-20T10:55:18.376Z,99.99
2017-07-20T10:56:18.373Z,99.99
2017-07-20T10:57:18.344Z,99.99
2017-07-20T10:58:18.340Z,99.99
2017-07-20T10:59:18.327Z,99.99
2017-07-20T11:00:18.326Z,99.99
2017-07-20T11:01:18.313Z,99.99
2017-07-20T11:02:18.302Z,99.99
2017-07-20T11:03:18.292Z,99.99
2017-07-20T11:04:18.293Z,99.99
2017-07-20T11:05:18.276Z,99.99
2017-07-20T11:06:18.293Z,99.99
2017-07-20T11:07:18.254Z,99.99
2017-07-20T11:08:18.269Z,99.99
2017-07-20T11:09:18.254Z,99.99
2017-07-20T11:10:18.247Z,99.99
2017-07-20T11:11:18.275Z,99.99
2017-07-20T11:12:18.223Z,99.99
2017-07-20T11:13:18.217Z,99.99
2017-07-20T11:14:18.233Z,99.99
2017-07-20T11:15:18.199Z,99.99
2017-07-20T11:16:18.201Z,99.99
2017-07-20T11:17:18.185Z,99.99
2017-07-20T11:18:18.179Z,99.99
2017-07-20T11:19:18.156Z,99.99
2017-07-20T11:20:17.839Z,99.99
2017-07-20T11:21:18.134Z,99.99
2017-07-20T11:22:18.186Z,99.99
2017-07-20T11:23:18.125Z,99.99
2017-07-20T11:24:18.148Z,99.99
2017-07-20T11:25:18.108Z,99.99
2017-07-20T11:26:18.107Z,99.99
2017-07-20T11:27:18.076Z,99.99
2017-07-20T11:28:18.123Z,99.99
2017-07-20T11:29:18.078Z,99.99
2017-07-20T11:30:18.076Z,99.99
2017-07-20T11:31:18.054Z,99.99
2017-07-20T11:32:18.069Z,99.99
2017-07-20T11:33:18.029Z,99.99
2017-07-20T11:34:18.032Z,99.99
2017-07-20T11:35:18.006Z,99.99
2017-07-20T11:36:17.999Z,99.99
2017-07-20T11:37:17.991Z,99.99
2017-07-20T11:38:17.979Z,99.99
2017-07-20T11:39:17.973Z,99.99
2017-07-20T11:40:17.965Z,99.99
2017-07-20T11:41:17.945Z,99.99
2017-07-20T11:42:17.940Z,99.99
2017-07-20T11:43:17.929Z,99.99
2017-07-20T11:44:17.932Z,99.99
2017-07-20T11:45:17.929Z,99.99
2017-07-20T11:46:17.908Z,99.99
2017-07-20T11:47:17.904Z,99.99
2017-07-20T11:48:17.869Z,99.99
2017-07-20T11:49:17.555Z,99.99
2017-07-20T11:50:17.855Z,99.99
2017-07-20T11:51:17.847Z,99.99
2017-07-20T11:52:17.833Z,99.99
2017-07-20T11:53:17.845Z,99.99
2017-07-20T11:54:17.837Z,99.99
2017-07-20T11:55:17.815Z,99.99
2017-07-20T11:56:17.806Z,99.99
2017-07-20T11:57:17.795Z,99.99
2017-07-20T11:58:17.804Z,99.99
2017-07-20T11:59:17.779Z,99.99
2017-07-20T12:00:17.776Z,99.99
2017-07-20T12:01:17.763Z,99.99
2017-07-20T12:02:17.763Z,99.99
2017-07-20T12:03:17.736Z,99.99
2017-07-20T12:04:17.414Z,99.99
2017-07-20T12:05:17.716Z,99.99
2017-07-20T12:06:17.716Z,99.99
2017-07-20T12:07:17.704Z,99.99
2017-07-20T12:08:17.709Z,99.99
2017-07-20T12:09:17.684Z,99.99
2017-07-20T12:10:17.388Z,99.99
2017-07-20T12:11:17.670Z,99.99
2017-07-20T12:12:17.663Z,99.99
2017-07-20T12:13:17.645Z,99.99
2017-07-20T12:14:17.644Z,99.99
2017-07-20T12:15:17.631Z,99.99
2017-07-20T12:16:17.634Z,99.99
2017-07-20T12:17:17.615Z,99.99
2017-07-20T12:18:17.599Z,99.99
2017-07-20T12:19:17.590Z,99.99
2017-07-20T12:20:17.573Z,99.99
2017-07-20T12:21:17.564Z,97.96
2017-07-20T12:22:17.272Z,96.45
2017-07-20T12:23:17.543Z,96.35
2017-07-20T12:24:17.555Z,96.79
2017-07-20T12:25:17.536Z,96.3
2017-07-20T12:26:17.543Z,96.3
2017-07-20T12:27:17.213Z,96.89
2017-07-20T12:28:17.525Z,96.3
2017-07-20T12:29:17.195Z,95.28
2017-07-20T12:30:17.508Z,94.79
2017-07-20T12:31:17.503Z,95.23
2017-07-20T12:32:17.501Z,95.43
2017-07-20T12:33:17.475Z,95.43
2017-07-20T12:34:17.455Z,96.01
2017-07-20T12:35:17.146Z,95.23
2017-07-20T12:36:17.447Z,95.62
2017-07-20T12:37:17.433Z,94.79
2017-07-20T12:38:17.426Z,95.47
2017-07-20T12:39:17.415Z,94.99
2017-07-20T12:40:17.102Z,95.72
2017-07-20T12:41:17.083Z,94.7
2017-07-20T12:42:17.393Z,94.11
2017-07-20T12:43:17.382Z,94.31
2017-07-20T12:44:17.374Z,94.6
2017-07-20T12:45:17.363Z,94.99
2017-07-20T12:46:17.352Z,94.99
2017-07-20T12:47:17.413Z,94.16
2017-07-20T12:48:17.358Z,92.41
2017-07-20T12:49:17.024Z,92.74
2017-07-20T12:50:17.334Z,92.84
2017-07-20T12:51:17.447Z,93.04
2017-07-20T12:52:17.306Z,93.19